.
WxDataArchive / Data Records for 2012-04-13
2012-04-12 April 2012 2012-04-14

Data Records for Friday, 13 April 2012

Time	Temp	Chill	HIndex	Humid	Dewpt	 Wind 	HiWind	WindDir	Rain 	Barom 
-----	----	-----	------	-----	-----	------	------	-------	-----	----- 
00:00	43.1	43.1	43.1	59	29.8	0	0	---	0.00	30.200 
00:05	42.8	42.8	42.8	60	29.9	0	0	---	0.00	30.200 
00:10	42.6	42.6	42.6	60	29.7	0	0	---	0.00	30.200 
00:15	42.3	42.3	42.3	60	29.4	0	0	---	0.00	30.195 
00:20	42.2	42.2	42.2	61	29.7	0	0	---	0.00	30.195 
00:25	41.9	41.9	41.9	62	29.8	0	0	---	0.00	30.195 
00:30	41.6	41.6	41.6	62	29.6	0	0	---	0.00	30.192 
00:35	41.3	41.3	41.3	62	29.3	0	0	---	0.00	30.192 
00:40	41.1	41.1	41.1	63	29.5	0	0	---	0.00	30.192 
00:45	40.8	40.8	40.8	64	29.6	0	0	---	0.00	30.191 
00:50	40.6	40.6	40.6	65	29.8	0	1	315	0.00	30.191 
00:55	40.3	40.3	40.3	65	29.5	0	0	---	0.00	30.191 
01:00	40.1	40.1	40.1	66	29.7	0	0	---	0.00	30.197 
01:05	39.8	39.8	39.8	66	29.4	0	0	---	0.00	30.197 
01:10	39.5	39.5	39.5	67	29.5	0	0	---	0.00	30.197 
01:15	39.2	39.2	39.2	68	29.5	0	0	---	0.00	30.198 
01:20	39.1	39.1	39.1	69	29.8	0	0	---	0.00	30.198 
01:25	38.8	38.8	38.8	69	29.5	0	0	---	0.00	30.198 
01:30	38.6	38.6	38.6	70	29.7	0	1	315	0.00	30.195 
01:35	38.3	38.3	38.3	71	29.7	0	0	---	0.00	30.195 
01:40	38.2	38.2	38.2	72	30.0	0	0	---	0.00	30.195 
01:45	38.0	38.0	38.0	73	30.1	0	0	---	0.00	30.194 
01:50	37.8	37.8	37.8	73	29.9	0	0	---	0.00	30.194 
01:55	37.6	37.6	37.6	73	29.7	0	0	---	0.00	30.194 
02:00	37.3	37.3	37.3	73	29.5	0	0	---	0.00	30.197 
02:05	37.2	37.2	37.2	74	29.7	0	0	---	0.00	30.197 
02:10	37.0	37.0	37.0	74	29.5	0	0	---	0.00	30.197 
02:15	36.9	36.9	36.9	74	29.4	0	0	---	0.00	30.193 
02:20	36.8	36.8	36.8	74	29.3	0	0	---	0.00	30.193 
02:25	36.5	36.5	36.5	75	29.3	0	0	---	0.00	30.193 
02:30	36.3	36.3	36.3	75	29.1	0	0	---	0.00	30.193 
02:35	36.0	36.0	36.0	75	28.9	0	0	---	0.00	30.193 
02:40	35.9	35.9	35.9	76	29.1	0	0	---	0.00	30.193 
02:45	35.8	35.8	35.8	76	29.0	0	0	---	0.00	30.195 
02:50	35.6	35.6	35.6	77	29.1	0	0	---	0.00	30.195 
02:55	35.5	35.5	35.5	77	29.0	0	0	---	0.00	30.195 
03:00	35.2	35.2	35.2	78	29.0	0	0	---	0.00	30.190 
03:05	35.0	35.0	35.0	78	28.8	0	0	---	0.00	30.190 
03:10	34.9	34.9	34.9	79	29.1	0	0	---	0.00	30.190 
03:15	34.7	34.7	34.7	80	29.2	0	0	---	0.00	30.187 
03:20	34.7	34.7	34.7	81	29.5	0	0	---	0.00	30.187 
03:25	34.7	34.7	34.7	81	29.5	0	0	---	0.00	30.187 
03:30	34.9	34.9	34.9	82	30.0	0	0	---	0.00	30.191 
03:35	34.9	34.9	34.9	82	30.0	0	0	---	0.00	30.191 
03:40	34.9	34.9	34.9	81	29.7	0	0	---	0.00	30.191 
03:45	34.7	34.7	34.7	81	29.5	0	0	---	0.00	30.196 
03:50	34.7	34.7	34.7	81	29.5	0	0	---	0.00	30.196 
03:55	34.6	34.6	34.6	81	29.4	0	0	---	0.00	30.196 
04:00	34.6	34.6	34.6	81	29.4	0	0	---	0.00	30.200 
04:05	34.4	34.4	34.4	81	29.2	0	0	---	0.00	30.200 
04:10	34.3	34.3	34.3	81	29.1	0	0	---	0.00	30.200 
04:15	34.3	34.3	34.3	81	29.1	0	0	---	0.00	30.206 
04:20	34.0	34.0	34.0	81	28.8	0	0	---	0.00	30.206 
04:25	33.8	33.8	33.8	81	28.6	0	0	---	0.00	30.206 
04:30	33.7	33.7	33.7	81	28.5	0	0	---	0.00	30.213 
04:35	33.7	33.7	33.7	82	28.8	0	0	---	0.00	30.213 
04:40	33.5	33.5	33.5	82	28.6	0	0	---	0.00	30.213 
04:45	33.4	33.4	33.4	82	28.5	0	0	---	0.00	30.218 
04:50	33.2	33.2	33.2	82	28.3	0	0	---	0.00	30.218 
04:55	33.2	33.2	33.2	83	28.6	0	0	---	0.00	30.218 
05:00	33.1	33.1	33.1	83	28.5	0	0	---	0.00	30.222 
05:05	33.1	33.1	33.1	83	28.5	0	0	---	0.00	30.222 
05:10	32.9	32.9	32.9	83	28.3	0	0	---	0.00	30.222 
05:15	32.9	32.9	32.9	83	28.3	0	0	---	0.00	30.229 
05:20	32.8	32.8	32.8	84	28.5	0	0	---	0.00	30.229 
05:25	32.8	32.8	32.8	84	28.5	0	0	---	0.00	30.229 
05:30	32.8	32.8	32.8	84	28.5	0	0	---	0.00	30.234 
05:35	32.7	32.7	32.7	84	28.4	0	0	---	0.00	30.234 
05:40	32.7	32.7	32.7	84	28.4	0	0	---	0.00	30.234 
05:45	32.5	32.5	32.5	84	28.2	0	0	---	0.00	30.236 
05:50	32.4	32.4	32.4	84	28.1	0	0	---	0.00	30.236 
05:55	32.4	32.4	32.4	85	28.4	0	0	---	0.00	30.236 
06:00	32.2	32.2	32.2	85	28.2	0	0	---	0.00	30.238 
06:05	32.1	32.1	32.1	85	28.1	0	0	---	0.00	30.238 
06:10	32.1	32.1	32.1	85	28.1	0	0	---	0.00	30.238 
06:15	31.9	31.9	31.9	86	28.2	0	0	---	0.00	30.239 
06:20	31.9	31.9	31.9	86	28.2	0	0	---	0.00	30.239 
06:25	31.8	31.8	31.8	86	28.1	0	0	---	0.00	30.239 
06:30	31.8	31.8	31.8	86	28.1	0	0	---	0.00	30.244 
06:35	31.6	31.6	31.6	86	27.9	0	0	---	0.00	30.244 
06:40	31.6	31.6	31.6	86	27.9	0	0	---	0.00	30.244 
06:45	31.5	31.5	31.5	87	28.1	0	0	---	0.00	30.248 
06:50	31.3	31.3	31.3	87	27.9	0	0	---	0.00	30.248 
06:55	31.2	31.2	31.2	87	27.8	0	0	---	0.00	30.248 
07:00	31.0	31.0	31.0	87	27.6	0	0	---	0.00	30.248 
07:05	31.0	31.0	31.0	87	27.6	0	0	---	0.00	30.248 
07:10	31.0	31.0	31.0	87	27.6	0	0	---	0.00	30.248 
07:15	31.0	31.0	31.0	88	27.9	0	0	---	0.00	30.255 
07:20	31.2	31.2	31.2	88	28.1	0	0	---	0.00	30.255 
07:25	31.3	31.3	31.3	88	28.2	0	0	---	0.00	30.255 
07:30	31.3	31.3	31.3	88	28.2	0	0	---	0.00	30.257 
07:35	31.5	31.5	31.5	88	28.4	0	0	---	0.00	30.257 
07:40	31.6	31.6	31.6	88	28.5	0	0	---	0.00	30.257 
07:45	31.8	31.8	31.8	89	28.9	0	0	---	0.00	30.255 
07:50	32.1	32.1	32.1	89	29.2	0	0	---	0.00	30.255 
07:55	32.5	32.5	32.5	90	29.9	0	0	---	0.00	30.255 
08:00	33.4	33.4	33.4	90	30.8	0	0	---	0.00	30.256 
08:05	34.3	34.3	34.3	91	32.0	0	0	---	0.00	30.256 
08:10	35.2	35.2	35.2	90	32.6	0	0	---	0.00	30.256 
08:15	36.5	36.5	36.5	90	33.9	0	1	315	0.00	30.253 
08:20	38.2	38.2	38.2	83	33.5	0	1	315	0.00	30.253 
08:25	39.8	39.8	39.8	77	33.2	0	1	315	0.00	30.253 
08:30	41.1	41.1	41.1	71	32.4	0	3	315	0.00	30.247 
08:35	41.9	41.9	41.9	68	32.1	0	2	315	0.00	30.247 
08:40	42.6	42.6	42.6	67	32.4	0	1	315	0.00	30.247 
08:45	43.2	43.2	43.2	65	32.2	1	3	315	0.00	30.242 
08:50	43.8	43.8	43.8	64	32.4	0	3	338	0.00	30.242 
08:55	44.3	44.3	44.3	62	32.1	0	2	338	0.00	30.242 
09:00	44.6	44.6	44.6	62	32.4	1	3	338	0.00	30.233 
09:05	44.9	44.9	44.9	63	33.1	0	3	338	0.00	30.233 
09:10	45.4	45.4	45.4	62	33.2	0	2	338	0.00	30.233 
09:15	46.2	46.2	46.2	62	33.9	0	2	338	0.00	30.230 
09:20	47.0	47.0	47.0	61	34.3	0	1	338	0.00	30.230 
09:25	47.7	47.7	47.7	59	34.1	0	1	338	0.00	30.230 
09:30	48.3	48.3	48.3	58	34.2	0	2	338	0.00	30.232 
09:35	48.9	48.9	48.9	57	34.3	0	2	338	0.00	30.232 
09:40	49.4	49.4	49.4	55	33.9	1	3	45	0.00	30.232 
09:45	49.8	49.8	49.8	54	33.8	1	3	90	0.00	30.231 
09:50	50.4	50.4	50.4	53	33.9	0	2	90	0.00	30.231 
09:55	51.1	51.1	51.1	52	34.1	1	3	90	0.00	30.231 
10:00	51.9	51.9	51.9	49	33.3	1	2	90	0.00	30.227 
10:05	52.8	52.8	52.8	47	33.1	0	2	90	0.00	30.227 
10:10	53.5	53.5	53.5	45	32.7	1	4	90	0.00	30.227 
10:15	54.4	54.4	54.4	44	32.9	1	4	112	0.00	30.230 
10:20	55.0	55.0	55.0	41	31.7	2	7	90	0.00	30.230 
10:25	55.3	55.3	55.3	39	30.8	2	6	90	0.00	30.230 
10:30	55.7	55.7	55.7	39	31.1	2	5	112	0.00	30.227 
10:35	56.3	56.3	56.3	36	29.7	1	4	90	0.00	30.227 
10:40	56.9	56.9	56.9	37	30.9	1	4	135	0.00	30.227 
10:45	57.3	57.3	57.3	35	29.9	2	8	90	0.00	30.228 
10:50	57.5	57.5	57.5	35	30.1	2	9	90	0.00	30.228 
10:55	58.1	58.1	58.1	39	33.3	3	9	90	0.00	30.228 
11:00	58.0	58.0	58.0	33	29.1	3	8	112	0.00	30.232 
11:05	57.6	57.6	57.6	34	29.4	2	6	112	0.00	30.232 
11:10	57.6	57.6	57.6	35	30.2	2	4	90	0.00	30.232 
11:15	57.5	57.5	57.5	34	29.4	2	9	90	0.00	30.230 
11:20	57.5	57.5	57.5	32	27.9	1	5	90	0.00	30.230 
11:25	57.6	57.6	57.6	33	28.7	1	4	90	0.00	30.230 
11:30	57.6	57.6	57.6	33	28.7	2	5	68	0.00	30.227 
11:35	57.6	57.6	57.6	34	29.4	3	10	90	0.00	30.227 
11:40	57.8	57.8	57.8	32	28.1	2	6	90	0.00	30.227 
11:45	58.1	58.1	58.1	31	27.6	2	5	90	0.00	30.225 
11:50	58.3	58.3	58.3	34	30.1	1	6	90	0.00	30.225 
11:55	58.6	58.6	58.6	31	28.1	1	4	112	0.00	30.225 
12:00	58.6	58.6	58.6	30	27.3	2	7	90	0.00	30.232 
12:05	58.4	58.4	58.4	31	27.9	2	6	90	0.00	30.232 
12:10	58.9	58.9	58.9	33	29.9	1	3	112	0.00	30.232 
12:15	59.3	59.3	59.3	32	29.4	2	7	112	0.00	30.242 
12:20	60.1	60.1	60.1	29	27.7	1	3	68	0.00	30.242 
12:25	60.5	60.5	60.5	33	31.3	1	4	68	0.00	30.242 
12:30	60.7	60.7	60.7	33	31.4	2	4	90	0.00	30.239 
12:35	61.0	61.0	61.0	28	27.7	1	6	112	0.00	30.239 
12:40	61.5	61.5	61.5	32	31.4	1	5	112	0.00	30.239 
12:45	62.0	62.0	62.0	28	28.5	1	4	90	0.00	30.245 
12:50	62.3	62.3	62.3	29	29.6	1	3	90	0.00	30.245 
12:55	62.3	62.3	62.3	27	27.9	2	4	90	0.00	30.245 
13:00	62.0	62.0	62.0	26	26.7	2	5	90	0.00	30.256 
13:05	61.6	61.6	61.6	27	27.3	2	6	90	0.00	30.256 
13:10	61.6	61.6	61.6	26	26.4	2	9	135	0.00	30.256 
13:15	61.8	61.8	61.8	28	28.4	2	5	90	0.00	30.251 
13:20	61.8	61.8	61.8	29	29.2	1	3	315	0.00	30.251 
13:25	61.8	61.8	61.8	28	28.4	2	4	112	0.00	30.251 
13:30	62.0	62.0	62.0	28	28.5	2	5	112	0.00	30.253 
13:35	62.0	62.0	62.0	28	28.5	2	5	90	0.00	30.253 
13:40	62.1	62.1	62.1	27	27.7	1	3	90	0.00	30.253 
13:45	62.3	62.3	62.3	27	27.9	2	5	90	0.00	30.249 
13:50	62.3	62.3	62.3	25	26.0	2	4	90	0.00	30.249 
13:55	62.4	62.4	62.4	29	29.7	2	5	112	0.00	30.249 
14:00	62.9	62.9	62.9	33	33.4	1	3	248	0.00	30.243 
14:05	63.4	63.4	63.4	28	29.7	1	4	112	0.00	30.243 
14:10	63.9	63.9	63.9	27	29.3	1	6	112	0.00	30.243 
14:15	63.9	63.9	63.9	26	28.3	2	6	90	0.00	30.244 
14:20	63.4	63.4	63.4	26	27.9	2	5	90	0.00	30.244 
14:25	63.5	63.5	63.5	28	29.8	1	4	90	0.00	30.244 
14:30	63.7	63.7	63.7	29	30.8	2	4	90	0.00	30.237 
14:35	63.7	63.7	63.7	29	30.8	2	4	90	0.00	30.237 
14:40	63.9	63.9	63.9	28	30.2	2	5	90	0.00	30.237 
14:45	63.9	63.9	63.9	26	28.3	3	6	112	0.00	30.233 
14:50	63.7	63.7	63.7	28	30.0	1	7	112	0.00	30.233 
14:55	63.9	63.9	63.9	27	29.3	1	7	90	0.00	30.233 
15:00	63.9	63.9	63.9	26	28.3	3	11	90	0.00	30.229 
15:05	64.0	64.0	64.0	25	27.5	2	5	90	0.00	30.229 
15:10	64.7	64.7	64.7	26	29.0	1	4	112	0.00	30.229 
15:15	65.3	65.3	65.3	28	31.4	1	5	68	0.00	30.214 
15:20	65.5	65.5	65.5	24	27.8	2	6	90	0.00	30.214 
15:25	65.2	65.2	65.2	25	28.5	1	6	90	0.00	30.214 
15:30	64.7	64.7	64.7	27	29.9	2	4	112	0.00	30.203 
15:35	64.8	64.8	64.8	25	28.2	1	4	112	0.00	30.203 
15:40	64.7	64.7	64.7	26	29.0	1	5	90	0.00	30.203 
15:45	64.8	64.8	64.8	24	27.2	1	4	90	0.00	30.196 
15:50	65.2	65.2	65.2	26	29.5	1	3	112	0.00	30.196 
15:55	65.3	65.3	65.3	26	29.5	1	4	112	0.00	30.196 
16:00	65.0	65.0	65.0	24	27.3	1	3	112	0.00	30.189 
16:05	64.7	64.7	64.7	27	29.9	1	7	112	0.00	30.189 
16:10	64.5	64.5	64.5	25	27.9	1	4	112	0.00	30.189 
16:15	64.2	64.2	64.2	24	26.7	1	5	112	0.00	30.184 
16:20	63.9	63.9	63.9	24	26.4	1	6	90	0.00	30.184 
16:25	63.7	63.7	63.7	25	27.2	1	3	90	0.00	30.184 
16:30	63.7	63.7	63.7	24	26.2	0	1	90	0.00	30.176 
16:35	63.9	63.9	63.9	25	27.4	1	3	90	0.00	30.176 
16:40	64.0	64.0	64.0	25	27.5	1	5	135	0.00	30.176 
16:45	64.3	64.3	64.3	24	26.7	1	5	90	0.00	30.170 
16:50	64.5	64.5	64.5	25	27.9	0	2	90	0.00	30.170 
16:55	64.3	64.3	64.3	25	27.7	1	4	90	0.00	30.170 
17:00	64.5	64.5	64.5	26	28.9	1	3	90	0.00	30.165 
17:05	64.7	64.7	64.7	25	28.1	0	2	90	0.00	30.165 
17:10	64.5	64.5	64.5	25	27.9	1	4	90	0.00	30.165 
17:15	64.3	64.3	64.3	26	28.7	1	3	90	0.00	30.166 
17:20	64.2	64.2	64.2	28	30.4	1	3	90	0.00	30.166 
17:25	64.0	64.0	64.0	25	27.5	2	5	248	0.00	30.166 
17:30	63.7	63.7	63.7	26	28.2	1	3	248	0.00	30.162 
17:35	63.4	63.4	63.4	27	28.8	1	2	248	0.00	30.162 
17:40	63.1	63.1	63.1	25	26.7	1	4	90	0.00	30.162 
17:45	63.1	63.1	63.1	25	26.7	2	5	112	0.00	30.161 
17:50	62.9	62.9	62.9	27	28.4	1	4	90	0.00	30.161 
17:55	62.9	62.9	62.9	25	26.5	1	3	90	0.00	30.161 
18:00	62.9	62.9	62.9	26	27.5	0	2	90	0.00	30.167 
18:05	62.9	62.9	62.9	27	28.4	1	3	90	0.00	30.167 
18:10	63.1	63.1	63.1	25	26.7	1	3	90	0.00	30.167 
18:15	63.2	63.2	63.2	28	29.6	0	2	135	0.00	30.156 
18:20	63.5	63.5	63.5	27	28.9	1	2	135	0.00	30.156 
18:25	63.7	63.7	63.7	26	28.2	1	3	135	0.00	30.156 
18:30	63.4	63.4	63.4	26	27.9	1	4	270	0.00	30.154 
18:35	63.2	63.2	63.2	27	28.7	0	3	248	0.00	30.154 
18:40	63.1	63.1	63.1	25	26.7	1	3	112	0.00	30.154 
18:45	62.9	62.9	62.9	25	26.5	1	2	112	0.00	30.150 
18:50	62.7	62.7	62.7	27	28.2	1	3	112	0.00	30.150 
18:55	62.4	62.4	62.4	27	28.0	0	2	112	0.00	30.150 
19:00	62.3	62.3	62.3	26	27.0	0	2	112	0.00	30.145 
19:05	62.1	62.1	62.1	26	26.8	1	4	112	0.00	30.145 
19:10	62.1	62.1	62.1	26	26.8	1	2	90	0.00	30.145 
19:15	62.0	62.0	62.0	27	27.6	0	1	90	0.00	30.139 
19:20	61.8	61.8	61.8	27	27.5	1	3	90	0.00	30.139 
19:25	61.8	61.8	61.8	27	27.5	0	2	90	0.00	30.139 
19:30	61.5	61.5	61.5	27	27.2	1	3	90	0.00	30.137 
19:35	61.3	61.3	61.3	27	27.0	0	2	90	0.00	30.137 
19:40	61.3	61.3	61.3	28	27.9	0	3	90	0.00	30.137 
19:45	61.0	61.0	61.0	28	27.7	1	5	112	0.00	30.133 
19:50	60.9	60.9	60.9	27	26.7	0	2	112	0.00	30.133 
19:55	60.7	60.7	60.7	28	27.4	0	0	---	0.00	30.133 
20:00	60.5	60.5	60.5	28	27.2	0	1	112	0.00	30.137 
20:05	60.1	60.1	60.1	28	26.9	0	0	---	0.00	30.137 
20:10	59.6	59.6	59.6	28	26.5	0	0	---	0.00	30.137 
20:15	59.2	59.2	59.2	30	27.8	0	1	112	0.00	30.130 
20:20	59.0	59.0	59.0	30	27.6	0	1	112	0.00	30.130 
20:25	58.9	58.9	58.9	29	26.7	0	1	112	0.00	30.130 
20:30	58.7	58.7	58.7	32	28.9	0	0	---	0.00	30.127 
20:35	58.4	58.4	58.4	32	28.7	0	0	---	0.00	30.127 
20:40	58.0	58.0	58.0	33	29.1	0	0	---	0.00	30.127 
20:45	57.3	57.3	57.3	34	29.2	0	0	---	0.00	30.135 
20:50	57.0	57.0	57.0	35	29.6	0	0	---	0.00	30.135 
20:55	56.7	56.7	56.7	34	28.7	0	0	---	0.00	30.135 
21:00	56.5	56.5	56.5	36	29.9	0	1	112	0.00	30.115 
21:05	56.3	56.3	56.3	36	29.7	0	1	112	0.00	30.115 
21:10	56.0	56.0	56.0	36	29.4	0	0	---	0.00	30.115 
21:15	55.7	55.7	55.7	37	29.8	0	0	---	0.00	30.119 
21:20	55.6	55.6	55.6	38	30.4	0	0	---	0.00	30.119 
21:25	55.3	55.3	55.3	37	29.5	0	0	---	0.00	30.119 
21:30	55.0	55.0	55.0	39	30.5	0	0	---	0.00	30.128 
21:35	54.8	54.8	54.8	39	30.3	0	0	---	0.00	30.128 
21:40	54.5	54.5	54.5	39	30.1	0	0	---	0.00	30.128 
21:45	54.4	54.4	54.4	38	29.3	0	0	---	0.00	30.125 
21:50	54.2	54.2	54.2	39	29.8	0	0	---	0.00	30.125 
21:55	54.2	54.2	54.2	39	29.8	0	0	---	0.00	30.125 
22:00	54.1	54.1	54.1	42	31.5	0	0	---	0.00	30.126 
22:05	53.8	53.8	53.8	42	31.3	0	1	112	0.00	30.126 
22:10	53.8	53.8	53.8	43	31.8	0	1	112	0.00	30.126 
22:15	53.9	53.9	53.9	41	30.7	0	1	112	0.00	30.116 
22:20	53.9	53.9	53.9	39	29.5	0	1	112	0.00	30.116 
22:25	54.1	54.1	54.1	39	29.7	0	1	112	0.00	30.116 
22:30	54.2	54.2	54.2	39	29.8	0	1	112	0.00	30.107 
22:35	54.4	54.4	54.4	38	29.3	0	0	---	0.00	30.107 
22:40	54.5	54.5	54.5	38	29.4	0	1	112	0.00	30.107 
22:45	54.8	54.8	54.8	37	29.0	0	1	112	0.00	30.097 
22:50	55.0	55.0	55.0	37	29.2	0	1	112	0.00	30.097 
22:55	55.3	55.3	55.3	36	28.8	0	2	112	0.00	30.097 
23:00	55.6	55.6	55.6	36	29.1	0	2	112	0.00	30.101 
23:05	55.7	55.7	55.7	36	29.2	0	0	---	0.00	30.101 
23:10	55.7	55.7	55.7	39	31.1	0	0	---	0.00	30.101 
23:15	55.7	55.7	55.7	38	30.5	0	0	---	0.00	30.105 
23:20	55.6	55.6	55.6	37	29.7	0	1	112	0.00	30.105 
23:25	55.6	55.6	55.6	36	29.1	0	1	112	0.00	30.105 
23:30	55.6	55.6	55.6	36	29.1	0	1	112	0.00	30.095 
23:35	55.7	55.7	55.7	36	29.2	0	2	112	0.00	30.095 
23:40	55.7	55.7	55.7	37	29.8	0	0	---	0.00	30.095 
23:45	55.6	55.6	55.6	38	30.4	0	0	---	0.00	30.094 
23:50	55.3	55.3	55.3	39	30.8	0	1	112	0.00	30.094 
23:55	54.7	54.7	54.7	40	30.9	0	1	112	0.00	30.094 

CoCoRaHS
IN-AL-39
A2 Web Hosting
Creative Commons License
GoDaddy
search engine by freefind advanced

loaded 2018-11-15 06:22:43 • last modified 2010-11-18 10:43:29
Privacy PolicyDisclaimer
• wx.awcolley.com is powered by PmWiki v.2002016 •
• all content (unless otherwise noted) © 2018 A W Colley